Time;durP1;ratioP1;P1;durP2;ratioP2;P2;SDS_P1;SDS_P2;PMS_P1;PMS_P2;Temp;Humidity;BMP_temperature;BMP_pressure;BME280_temperature;BME280_humidity;BME280_pressure;Samples;Min_cycle;Max_cycle;Signal;HPM_P1;HPM_P2
2021/05/29 04:01:15;;;;;;;3.87;3.60;;;12.30;99.90;;;;;;5644779;22;20495;-63
2021/05/29 04:03:41;;;;;;;3.70;3.40;;;12.30;99.90;;;;;;5016936;28;20484;-63
2021/05/29 04:06:07;;;;;;;3.80;3.60;;;12.20;99.90;;;;;;5016639;28;20453;-63
2021/05/29 04:08:33;;;;;;;4.17;3.80;;;12.30;99.90;;;;;;5016281;28;21005;-65
2021/05/29 04:10:59;;;;;;;3.93;3.63;;;12.30;99.90;;;;;;5016652;28;20473;-64
2021/05/29 04:13:26;;;;;;;3.47;3.27;;;12.40;99.90;;;;;;5016607;28;20448;-64
2021/05/29 04:15:52;;;;;;;4.40;3.70;;;12.30;99.90;;;;;;5016687;28;20460;-64
2021/05/29 04:18:19;;;;;;;5.00;4.03;;;12.20;99.90;;;;;;5016947;28;20811;-64
2021/05/29 04:20:45;;;;;;;4.17;3.83;;;12.20;99.90;;;;;;5016610;28;20547;-64
2021/05/29 04:23:11;;;;;;;4.63;3.80;;;12.30;99.90;;;;;;5016354;28;20481;-65
2021/05/29 04:25:38;;;;;;;4.23;3.83;;;12.30;99.90;;;;;;5016411;28;20453;-64
2021/05/29 04:28:04;;;;;;;4.33;3.87;;;12.40;99.90;;;;;;5016193;28;20891;-63
2021/05/29 04:30:31;;;;;;;5.17;3.60;;;12.30;99.90;;;;;;5016258;28;20895;-64
2021/05/29 04:32:58;;;;;;;3.83;3.57;;;12.40;99.90;;;;;;5016162;28;20453;-63
2021/05/29 04:35:25;;;;;;;4.63;4.23;;;12.50;99.90;;;;;;5016278;28;20488;-65
2021/05/29 04:37:52;;;;;;;3.90;3.60;;;12.50;99.90;;;;;;5016004;28;20464;-64
2021/05/29 04:40:21;;;;;;;3.93;3.70;;;12.50;99.90;;;;;;5016280;28;20457;-64
2021/05/29 04:42:48;;;;;;;3.87;3.67;;;12.50;99.90;;;;;;5015239;28;20947;-64
2021/05/29 04:45:15;;;;;;;4.40;4.00;;;12.60;99.90;;;;;;5015916;28;20464;-63
2021/05/29 04:47:43;;;;;;;3.80;3.50;;;12.70;99.90;;;;;;5017835;28;20456;-64
2021/05/29 04:50:11;;;;;;;4.17;3.90;;;12.60;99.90;;;;;;5018246;28;20459;-65
2021/05/29 04:52:39;;;;;;;3.87;3.57;;;12.70;99.90;;;;;;5017108;28;20531;-63
2021/05/29 04:55:06;;;;;;;3.87;3.57;;;12.80;99.90;;;;;;5016587;28;20460;-64
2021/05/29 04:57:32;;;;;;;3.90;3.60;;;12.80;99.90;;;;;;5015848;28;20449;-65
2021/05/29 04:59:59;;;;;;;5.03;3.73;;;12.90;99.90;;;;;;5015233;28;20951;-64
2021/05/29 05:02:25;;;;;;;4.27;3.70;;;13.00;99.90;;;;;;5015228;28;20491;-63
2021/05/29 05:04:51;;;;;;;5.17;3.87;;;13.00;99.90;;;;;;5015749;28;20481;-64
2021/05/29 05:07:17;;;;;;;4.47;4.17;;;13.00;99.90;;;;;;5015711;28;20452;-64
2021/05/29 05:09:44;;;;;;;5.00;4.60;;;13.10;99.90;;;;;;5015900;28;20460;-63
2021/05/29 05:12:11;;;;;;;5.50;5.10;;;13.20;99.90;;;;;;5015306;28;20859;-64
2021/05/29 05:14:37;;;;;;;4.77;4.47;;;13.30;99.90;;;;;;5015267;28;20940;-64
2021/05/29 05:17:04;;;;;;;5.20;4.70;;;13.30;99.90;;;;;;5015245;28;20452;-63
2021/05/29 05:19:30;;;;;;;4.00;3.80;;;13.40;99.90;;;;;;5015736;28;20479;-64
2021/05/29 05:21:57;;;;;;;4.30;3.90;;;13.50;99.90;;;;;;5015322;28;20579;-65
2021/05/29 05:24:23;;;;;;;4.00;3.70;;;13.60;99.90;;;;;;5015272;28;20480;-65
2021/05/29 05:26:50;;;;;;;4.00;3.80;;;13.70;99.90;;;;;;5015309;28;20449;-64
2021/05/29 05:29:17;;;;;;;4.33;4.07;;;13.70;99.90;;;;;;5015853;28;20453;-65
2021/05/29 05:31:44;;;;;;;4.70;4.20;;;13.80;99.90;;;;;;5021899;28;20476;-64
2021/05/29 05:34:11;;;;;;;4.87;4.50;;;13.90;99.90;;;;;;5017850;28;20526;-64
2021/05/29 05:36:39;;;;;;;4.13;3.70;;;13.70;99.90;;;;;;5015697;28;20814;-64
2021/05/29 05:39:08;;;;;;;4.47;4.17;;;13.90;99.90;;;;;;5014867;28;20947;-65
2021/05/29 05:41:34;;;;;;;5.23;4.40;;;14.00;99.90;;;;;;5014752;28;20484;-63
2021/05/29 05:44:01;;;;;;;3.90;3.70;;;14.10;99.90;;;;;;5015443;28;20485;-63
2021/05/29 05:46:28;;;;;;;3.73;3.53;;;14.20;99.90;;;;;;5015455;28;20878;-64
2021/05/29 05:48:54;;;;;;;4.00;3.70;;;14.20;99.90;;;;;;5015780;28;20460;-64
2021/05/29 05:51:21;;;;;;;3.23;3.10;;;14.30;99.90;;;;;;5014914;28;20479;-64
2021/05/29 05:53:47;;;;;;;4.30;3.50;;;14.50;99.90;;;;;;5014305;28;20452;-63
2021/05/29 05:56:16;;;;;;;2.97;2.87;;;14.70;99.90;;;;;;5015194;28;20468;-64
2021/05/29 05:58:42;;;;;;;2.80;2.70;;;14.80;99.90;;;;;;5015147;28;20515;-62
2021/05/29 06:01:09;;;;;;;3.03;2.90;;;14.90;99.90;;;;;;5014618;28;20491;-62
2021/05/29 06:03:36;;;;;;;3.83;3.30;;;15.10;99.90;;;;;;5014875;28;20480;-62
2021/05/29 06:06:03;;;;;;;2.87;2.73;;;15.30;99.90;;;;;;5015079;28;20809;-61
2021/05/29 06:08:29;;;;;;;4.50;3.23;;;15.40;99.90;;;;;;5014863;28;20461;-61
2021/05/29 06:10:55;;;;;;;3.03;2.93;;;15.60;99.90;;;;;;5015179;28;20473;-62
2021/05/29 06:13:34;;;;;;;2.93;2.73;;;15.60;99.90;;;;;;5014773;28;20453;-62
2021/05/29 06:19:11;;;;;;;3.53;3.23;;;15.90;99.90;;;;;;5014952;28;20472;-62
2021/05/29 06:21:38;;;;;;;2.70;2.50;;;16.20;99.90;;;;;;5015046;28;20480;-62
2021/05/29 06:24:05;;;;;;;3.20;2.90;;;16.50;99.90;;;;;;5014431;28;20473;-62
2021/05/29 06:26:31;;;;;;;2.70;2.50;;;16.60;99.90;;;;;;5014615;28;20463;-63
2021/05/29 06:28:58;;;;;;;3.00;2.80;;;16.70;99.90;;;;;;5014625;28;20456;-63
2021/05/29 06:31:24;;;;;;;4.90;3.20;;;16.60;99.90;;;;;;5014284;28;20477;-63
2021/05/29 06:33:51;;;;;;;4.00;3.40;;;16.80;99.90;;;;;;5014767;28;20449;-62
2021/05/29 06:36:17;;;;;;;3.60;3.40;;;16.90;99.90;;;;;;5014899;28;20456;-63
2021/05/29 06:38:45;;;;;;;3.93;3.57;;;16.80;99.90;;;;;;5014680;28;20456;-62
2021/05/29 06:41:11;;;;;;;3.40;3.20;;;16.90;99.90;;;;;;5014361;28;20940;-63
2021/05/29 06:43:37;;;;;;;3.50;3.30;;;17.20;99.90;;;;;;5014672;28;20477;-61
2021/05/29 06:46:03;;;;;;;3.83;3.53;;;17.30;99.90;;;;;;5015077;28;20460;-64
2021/05/29 06:48:29;;;;;;;4.13;3.70;;;17.40;99.90;;;;;;5014061;28;20807;-63
2021/05/29 06:50:58;;;;;;;3.50;3.30;;;17.60;99.90;;;;;;5014436;28;20883;-62
2021/05/29 06:53:27;;;;;;;3.43;3.23;;;18.00;99.90;;;;;;5014314;28;20492;-62
2021/05/29 06:58:47;;;;;;;3.90;3.60;;;18.90;99.90;;;;;;5014647;28;20487;-62
2021/05/29 07:01:13;;;;;;;3.77;3.57;;;19.40;99.90;;;;;;5014543;28;20902;-63
2021/05/29 07:03:39;;;;;;;3.93;3.60;;;20.00;99.90;;;;;;5022659;28;20527;-62
2021/05/29 07:06:06;;;;;;;4.53;4.13;;;20.80;99.90;;;;;;5019001;28;20453;-63
2021/05/29 07:08:33;;;;;;;4.07;3.87;;;21.50;98.20;;;;;;5018866;28;20479;-62
2021/05/29 07:11:00;;;;;;;7.50;3.80;;;21.50;96.80;;;;;;5017677;28;20477;-63
2021/05/29 07:13:26;;;;;;;4.30;3.90;;;21.60;97.20;;;;;;5018293;28;20487;-62
2021/05/29 07:15:52;;;;;;;5.00;4.50;;;21.80;98.10;;;;;;5018502;28;20457;-63
2021/05/29 07:18:21;;;;;;;3.00;2.80;;;22.10;98.10;;;;;;5017632;28;20966;-63
2021/05/29 07:20:47;;;;;;;2.80;2.60;;;22.50;94.20;;;;;;5017513;28;20568;-64
2021/05/29 07:23:14;;;;;;;2.40;2.30;;;22.60;93.60;;;;;;5018138;28;20527;-64
2021/05/29 07:25:41;;;;;;;5.43;2.97;;;22.90;92.80;;;;;;5017688;28;20436;-63
2021/05/29 07:28:07;;;;;;;3.07;2.77;;;23.50;90.60;;;;;;5018981;28;20798;-63
2021/05/29 07:30:33;;;;;;;2.63;2.50;;;23.30;90.00;;;;;;5023386;28;20477;-63
2021/05/29 07:32:59;;;;;;;2.80;2.60;;;23.60;87.90;;;;;;5018478;28;20950;-62
2021/05/29 07:35:27;;;;;;;3.80;2.47;;;24.10;89.30;;;;;;5017887;28;20827;-64
2021/05/29 07:37:53;;;;;;;3.20;3.00;;;23.80;85.00;;;;;;5018107;28;20457;-64
2021/05/29 07:40:21;;;;;;;2.93;2.70;;;23.90;87.10;;;;;;5017523;28;20475;-64
2021/05/29 07:42:47;;;;;;;3.80;2.53;;;24.20;81.60;;;;;;5017643;28;20456;-64
2021/05/29 07:45:14;;;;;;;3.00;2.80;;;24.00;82.30;;;;;;5017388;28;20846;-64
2021/05/29 07:47:41;;;;;;;2.87;2.67;;;24.20;80.90;;;;;;5017579;28;20538;-64
2021/05/29 07:50:09;;;;;;;2.60;2.50;;;24.30;80.40;;;;;;5017096;28;20456;-64
2021/05/29 07:52:35;;;;;;;3.20;2.50;;;24.90;78.70;;;;;;5017434;28;20469;-65
2021/05/29 07:55:02;;;;;;;2.37;2.27;;;24.20;77.00;;;;;;5017628;28;20813;-63
2021/05/29 07:57:31;;;;;;;2.53;2.33;;;24.30;80.90;;;;;;5017139;28;20453;-64
2021/05/29 07:59:57;;;;;;;2.27;2.10;;;24.30;81.30;;;;;;5016860;28;20785;-64
2021/05/29 08:02:24;;;;;;;2.33;2.23;;;24.90;78.60;;;;;;5017153;28;20480;-64
2021/05/29 08:04:50;;;;;;;2.43;2.33;;;25.70;73.30;;;;;;5017058;28;20476;-64
2021/05/29 08:07:17;;;;;;;2.93;2.80;;;25.50;71.80;;;;;;5018110;28;20464;-64
2021/05/29 08:09:43;;;;;;;2.53;2.33;;;26.30;73.20;;;;;;5018030;28;20461;-63
2021/05/29 08:12:10;;;;;;;2.70;2.50;;;26.50;69.60;;;;;;5016851;28;20484;-64
2021/05/29 08:14:37;;;;;;;2.10;2.00;;;26.50;67.80;;;;;;5016951;28;20453;-63
2021/05/29 08:17:05;;;;;;;2.47;2.27;;;26.70;68.50;;;;;;5015626;28;20517;-63
2021/05/29 08:19:32;;;;;;;2.40;2.30;;;26.30;65.40;;;;;;5016644;28;20460;-64
2021/05/29 08:21:58;;;;;;;2.10;2.00;;;26.10;66.50;;;;;;5016471;28;20991;-64
2021/05/29 08:24:25;;;;;;;2.73;2.30;;;26.70;64.80;;;;;;5016293;28;20469;-64
2021/05/29 08:26:52;;;;;;;2.40;2.30;;;26.60;63.50;;;;;;5016506;28;20457;-65
2021/05/29 08:29:18;;;;;;;2.40;2.30;;;26.10;63.00;;;;;;5016375;28;20819;-64
2021/05/29 08:31:46;;;;;;;2.63;2.30;;;26.30;65.90;;;;;;5017059;28;20479;-63
2021/05/29 08:34:12;;;;;;;2.17;2.00;;;26.20;62.40;;;;;;5018276;28;20545;-64
2021/05/29 08:36:40;;;;;;;2.73;1.97;;;26.10;63.80;;;;;;5024463;28;20448;-64
2021/05/29 08:39:08;;;;;;;2.40;2.20;;;26.60;61.40;;;;;;5016491;28;20461;-65
2021/05/29 08:41:35;;;;;;;2.77;2.50;;;26.90;63.30;;;;;;5017082;28;20469;-64
2021/05/29 08:44:01;;;;;;;2.10;2.00;;;27.30;58.00;;;;;;5016426;28;20484;-64
2021/05/29 08:46:28;;;;;;;2.47;2.27;;;27.80;58.50;;;;;;5016597;28;20453;-63
2021/05/29 08:48:55;;;;;;;2.30;2.20;;;28.10;58.80;;;;;;5015828;28;20459;-64
2021/05/29 08:51:22;;;;;;;2.50;2.40;;;27.50;57.70;;;;;;5016406;28;20480;-63
2021/05/29 08:53:50;;;;;;;2.80;2.70;;;27.70;58.60;;;;;;5017047;28;20544;-64
2021/05/29 08:56:17;;;;;;;2.70;2.20;;;27.40;58.90;;;;;;5015951;28;20511;-64
2021/05/29 08:58:44;;;;;;;2.80;2.60;;;28.10;59.70;;;;;;5016944;28;20453;-64
2021/05/29 09:01:11;;;;;;;2.07;1.93;;;28.70;56.80;;;;;;5015935;28;20480;-65
2021/05/29 09:03:47;;;;;;;2.40;2.30;;;28.50;58.20;;;;;;5015832;28;20998;-63
2021/05/29 09:06:16;;;;;;;2.60;2.50;;;27.80;56.30;;;;;;5015958;28;20491;-64
2021/05/29 09:08:52;;;;;;;2.40;2.07;;;26.70;58.60;;;;;;5015928;28;20456;-64
2021/05/29 09:11:41;;;;;;;10.33;3.97;;;26.40;59.30;;;;;;5017306;28;20476;-63
2021/05/29 09:14:36;;;;;;;2.53;2.33;;;26.50;64.00;;;;;;5015791;28;20939;-62
2021/05/29 09:17:13;;;;;;;2.67;2.23;;;26.90;63.00;;;;;;5016523;28;20433;-64
2021/05/29 09:19:57;;;;;;;2.77;2.63;;;27.50;59.50;;;;;;5016496;28;20476;-64
2021/05/29 09:22:27;;;;;;;2.50;2.30;;;27.70;58.70;;;;;;5016112;28;20544;-65
2021/05/29 09:25:09;;;;;;;3.30;2.77;;;27.30;63.70;;;;;;5016103;28;20480;-63
2021/05/29 09:27:38;;;;;;;2.70;2.50;;;27.40;57.70;;;;;;5016073;28;20442;-64
2021/05/29 09:30:07;;;;;;;2.87;2.70;;;27.40;58.80;;;;;;5015102;28;20990;-64
2021/05/29 09:32:35;;;;;;;2.80;2.30;;;28.30;57.90;;;;;;5015441;28;20488;-64
2021/05/29 09:35:08;;;;;;;2.80;2.20;;;28.90;57.60;;;;;;5015200;28;20476;-64
2021/05/29 09:37:36;;;;;;;2.80;2.70;;;28.60;58.40;;;;;;5018589;28;20456;-65
2021/05/29 09:40:06;;;;;;;2.80;2.60;;;29.10;56.20;;;;;;5018316;28;20460;-64
2021/05/29 09:42:36;;;;;;;6.47;2.27;;;30.00;57.10;;;;;;5015327;28;20531;-64
2021/05/29 09:45:19;;;;;;;3.97;2.83;;;29.00;56.30;;;;;;5014755;28;21013;-63
2021/05/29 09:48:10;;;;;;;2.20;2.10;;;29.00;54.20;;;;;;5015691;28;20892;-64
2021/05/29 09:50:36;;;;;;;2.53;2.43;;;29.80;54.70;;;;;;5014996;28;20498;-64
2021/05/29 09:53:03;;;;;;;7.80;2.57;;;30.10;53.40;;;;;;5015388;28;20460;-64
2021/05/29 09:55:37;;;;;;;1.60;1.60;;;30.30;50.60;;;;;;5015764;28;20819;-63
2021/05/29 09:58:04;;;;;;;2.10;2.00;;;29.80;47.90;;;;;;5016968;28;20907;-64
2021/05/29 10:00:39;;;;;;;2.03;1.60;;;29.20;49.60;;;;;;5020579;28;20453;-63
2021/05/29 10:03:07;;;;;;;1.70;1.60;;;28.60;47.90;;;;;;5020092;28;20439;-64
2021/05/29 10:05:34;;;;;;;1.97;1.67;;;28.40;48.20;;;;;;5019305;28;20548;-64
2021/05/29 10:08:01;;;;;;;1.90;1.80;;;28.20;48.90;;;;;;5024139;28;20498;-64
2021/05/29 10:10:28;;;;;;;1.83;1.73;;;28.10;49.00;;;;;;5016355;28;20464;-65
2021/05/29 10:12:54;;;;;;;1.30;1.30;;;27.90;48.80;;;;;;5015370;28;20459;-64
2021/05/29 10:15:21;;;;;;;1.70;1.60;;;28.10;48.10;;;;;;5015159;28;20453;-63
2021/05/29 10:17:48;;;;;;;1.67;1.57;;;27.90;49.80;;;;;;5014852;28;20457;-65
2021/05/29 10:20:16;;;;;;;2.93;1.50;;;27.70;50.60;;;;;;5015049;28;20449;-65
2021/05/29 10:22:43;;;;;;;1.63;1.40;;;28.00;49.60;;;;;;5029538;28;20453;-63
2021/05/29 10:25:12;;;;;;;1.30;1.30;;;27.80;48.70;;;;;;5015746;28;20477;-64
2021/05/29 10:27:43;;;;;;;1.60;1.50;;;27.30;52.20;;;;;;5019308;28;20519;-64
2021/05/29 10:30:11;;;;;;;1.47;1.37;;;28.00;52.50;;;;;;5018922;28;20441;-65
2021/05/29 10:32:38;;;;;;;1.50;1.40;;;28.30;53.00;;;;;;5015564;28;20480;-64
2021/05/29 10:35:06;;;;;;;1.87;1.77;;;28.70;51.50;;;;;;5015795;28;20453;-64
2021/05/29 10:37:36;;;;;;;1.70;1.60;;;29.20;52.20;;;;;;5014925;28;20457;-64
2021/05/29 10:40:25;;;;;;;1.87;1.77;;;29.60;51.30;;;;;;5016392;28;20555;-63
2021/05/29 10:43:29;;;;;;;2.03;1.80;;;28.70;51.30;;;;;;5020410;28;20436;-63
2021/05/29 10:46:06;;;;;;;1.80;1.73;;;27.70;49.40;;;;;;4978111;28;20493;-64
2021/05/29 10:48:43;;;;;;;1.80;1.70;;;27.80;52.00;;;;;;5014828;28;20507;-64
2021/05/29 10:51:11;;;;;;;1.40;1.33;;;28.20;50.50;;;;;;5019160;28;20479;-63
2021/05/29 10:53:56;;;;;;;1.47;1.40;;;28.20;52.00;;;;;;5020078;28;20469;-64
2021/05/29 10:56:32;;;;;;;2.30;1.53;;;28.00;51.20;;;;;;5018546;28;20437;-64
2021/05/29 10:59:12;;;;;;;1.70;1.60;;;27.80;52.10;;;;;;5018685;28;20444;-64
2021/05/29 11:02:03;;;;;;;3.60;1.20;;;28.10;50.50;;;;;;5018039;28;20480;-63
2021/05/29 11:04:31;;;;;;;1.57;1.47;;;26.80;51.00;;;;;;5017937;28;20480;-63
2021/05/29 11:06:59;;;;;;;1.83;1.40;;;26.90;54.10;;;;;;5018029;28;20457;-63
2021/05/29 11:09:45;;;;;;;2.07;1.77;;;27.60;49.80;;;;;;5018488;28;20974;-63
2021/05/29 11:12:12;;;;;;;1.40;1.40;;;27.70;50.00;;;;;;5019289;28;20480;-64
2021/05/29 11:14:55;;;;;;;1.67;1.30;;;28.20;51.10;;;;;;5018678;28;20487;-65
2021/05/29 11:17:22;;;;;;;1.13;1.13;;;28.50;52.20;;;;;;5020188;28;20461;-61
2021/05/29 11:20:05;;;;;;;1.43;1.37;;;28.20;50.00;;;;;;5020212;28;20551;-61
2021/05/29 11:22:38;;;;;;;3.20;1.40;;;28.10;51.30;;;;;;5018854;28;20479;-61
2021/05/29 11:25:07;;;;;;;1.17;1.10;;;27.00;50.80;;;;;;5019847;28;20457;-60
2021/05/29 11:27:34;;;;;;;1.30;1.20;;;27.00;49.80;;;;;;5017690;28;20436;-60
2021/05/29 11:30:04;;;;;;;1.10;0.97;;;26.70;49.50;;;;;;5017909;28;20447;-61
2021/05/29 11:32:46;;;;;;;0.90;0.90;;;26.60;49.30;;;;;;5018862;28;20481;-61
2021/05/29 11:35:32;;;;;;;0.80;0.80;;;25.90;51.30;;;;;;5017440;28;20495;-61
2021/05/29 11:38:12;;;;;;;0.93;0.93;;;25.70;52.20;;;;;;5017749;28;20436;-61
2021/05/29 11:40:51;;;;;;;1.20;1.10;;;25.60;48.50;;;;;;5029762;28;20476;-61
2021/05/29 11:43:20;;;;;;;1.00;1.00;;;25.50;50.10;;;;;;5017114;28;20463;-60
2021/05/29 11:45:47;;;;;;;1.13;1.13;;;25.00;52.60;;;;;;5018441;28;20873;-61
2021/05/29 11:48:14;;;;;;;1.20;1.20;;;25.10;53.70;;;;;;5019237;28;20456;-62
2021/05/29 11:50:40;;;;;;;1.10;1.00;;;25.00;52.60;;;;;;5017271;28;20507;-61
2021/05/29 11:53:11;;;;;;;1.20;1.20;;;25.10;53.00;;;;;;5017284;28;20575;-60
2021/05/29 11:55:50;;;;;;;1.73;1.30;;;25.10;51.60;;;;;;5017456;28;20438;-61
2021/05/29 11:58:16;;;;;;;1.10;1.00;;;25.20;53.10;;;;;;5017229;28;20510;-61
2021/05/29 12:00:59;;;;;;;1.27;1.27;;;25.00;52.70;;;;;;5018748;28;20493;-60
2021/05/29 12:03:39;;;;;;;1.50;1.17;;;24.30;55.20;;;;;;5016767;28;20947;-61
2021/05/29 12:06:05;;;;;;;1.20;1.20;;;23.80;55.00;;;;;;5016793;28;21006;-63
2021/05/29 12:08:31;;;;;;;1.20;1.10;;;23.50;55.20;;;;;;5019771;28;20460;-61
2021/05/29 12:11:01;;;;;;;1.50;1.40;;;23.20;55.10;;;;;;5023396;28;20476;-63
2021/05/29 12:13:29;;;;;;;1.40;1.40;;;23.30;56.40;;;;;;5029166;28;20480;-62
2021/05/29 12:15:58;;;;;;;1.17;1.17;;;23.80;57.00;;;;;;5023380;28;20540;-61
2021/05/29 12:18:25;;;;;;;1.50;1.40;;;24.20;58.40;;;;;;5016523;28;20480;-61
2021/05/29 12:20:59;;;;;;;2.23;1.23;;;24.50;55.20;;;;;;5017620;28;20528;-61
2021/05/29 12:23:26;;;;;;;1.93;1.17;;;24.30;55.10;;;;;;5021241;28;20861;-60
2021/05/29 12:25:52;;;;;;;1.40;1.30;;;24.20;53.30;;;;;;5018304;28;20481;-62
2021/05/29 12:28:20;;;;;;;1.00;1.00;;;24.10;55.10;;;;;;5016836;28;20453;-61
2021/05/29 12:30:48;;;;;;;1.03;1.00;;;24.20;56.20;;;;;;5017378;28;20480;-60
2021/05/29 12:33:20;;;;;;;0.80;0.80;;;24.40;53.50;;;;;;5016919;28;20480;-61
2021/05/29 12:35:47;;;;;;;2.73;0.97;;;23.80;52.50;;;;;;5017199;28;20516;-61
2021/05/29 12:38:15;;;;;;;1.03;1.03;;;23.40;53.40;;;;;;5016872;28;20453;-60
2021/05/29 12:40:55;;;;;;;0.80;0.80;;;23.00;54.90;;;;;;5016778;28;20477;-60
2021/05/29 12:43:21;;;;;;;0.83;0.83;;;23.00;55.50;;;;;;5016627;28;20452;-59
2021/05/29 12:45:47;;;;;;;1.00;1.00;;;23.10;55.90;;;;;;5016572;28;20472;-60
2021/05/29 12:48:14;;;;;;;1.27;1.00;;;22.90;54.20;;;;;;5015885;28;20468;-59
2021/05/29 12:53:23;;;;;;;1.00;1.00;;;22.80;54.90;;;;;;5016445;28;20900;-61
2021/05/29 12:56:07;;;;;;;1.10;1.10;;;22.50;55.20;;;;;;5016132;28;20453;-62
2021/05/29 12:58:33;;;;;;;1.10;1.10;;;22.40;56.80;;;;;;5016208;28;20433;-62
2021/05/29 13:01:23;;;;;;;1.07;1.07;;;23.00;55.20;;;;;;5015891;28;20990;-62
2021/05/29 13:09:35;;;;;;;1.43;1.33;;;24.50;54.20;;;;;;5016290;28;20919;-61
2021/05/29 13:12:12;;;;;;;1.00;1.00;;;24.50;54.10;;;;;;5023272;28;20561;-62
2021/05/29 13:14:40;;;;;;;0.80;0.80;;;24.00;52.40;;;;;;5020466;28;20433;-62
2021/05/29 13:17:06;;;;;;;0.90;0.90;;;23.90;53.70;;;;;;5015994;28;20445;-62
2021/05/29 13:19:47;;;;;;;1.13;1.13;;;24.20;54.30;;;;;;5015713;28;20457;-62
2021/05/29 13:22:19;;;;;;;1.00;1.00;;;24.50;54.10;;;;;;5015478;28;20531;-62
2021/05/29 13:24:53;;;;;;;0.90;0.90;;;24.80;54.00;;;;;;5016378;28;20566;-62
2021/05/29 13:27:33;;;;;;;0.90;0.90;;;24.70;54.00;;;;;;5015314;28;20821;-62
2021/05/29 13:30:06;;;;;;;3.03;0.73;;;24.80;52.40;;;;;;5015095;28;20788;-61
2021/05/29 13:32:32;;;;;;;0.83;0.83;;;24.60;55.50;;;;;;5015528;28;20480;-60
2021/05/29 13:34:58;;;;;;;1.00;1.00;;;24.50;54.10;;;;;;5015206;28;20452;-60
2021/05/29 13:37:25;;;;;;;0.90;0.90;;;24.60;54.20;;;;;;5015166;28;20453;-60
2021/05/29 13:39:52;;;;;;;2.30;1.03;;;24.60;53.20;;;;;;5014805;28;20459;-60
2021/05/29 13:42:18;;;;;;;1.13;1.00;;;24.90;53.40;;;;;;5014608;28;20840;-60
2021/05/29 13:44:44;;;;;;;2.63;1.10;;;24.80;53.80;;;;;;5014564;28;20477;-60
2021/05/29 13:47:11;;;;;;;1.20;1.10;;;24.50;52.80;;;;;;5014590;28;20469;-60
2021/05/29 13:49:38;;;;;;;1.37;1.00;;;24.40;54.00;;;;;;5014592;28;20463;-60
2021/05/29 13:52:05;;;;;;;1.00;1.00;;;24.50;53.50;;;;;;5014853;28;20469;-61
2021/05/29 13:54:32;;;;;;;1.30;1.20;;;24.40;53.80;;;;;;5014353;28;20457;-61
2021/05/29 13:56:58;;;;;;;1.23;1.20;;;24.70;52.60;;;;;;5014675;28;20484;-61
2021/05/29 13:59:24;;;;;;;1.00;1.00;;;24.30;52.80;;;;;;5014707;28;20456;-61
2021/05/29 14:01:51;;;;;;;0.87;0.87;;;24.50;53.90;;;;;;5014975;28;20859;-61
2021/05/29 14:04:17;;;;;;;1.67;1.40;;;24.70;52.80;;;;;;5014543;28;20480;-61
2021/05/29 14:06:44;;;;;;;1.03;0.80;;;24.80;52.30;;;;;;5014716;28;20457;-61
2021/05/29 14:09:11;;;;;;;1.07;1.07;;;24.50;53.00;;;;;;5015290;28;20461;-60
2021/05/29 14:11:41;;;;;;;0.90;0.90;;;24.40;51.40;;;;;;5014963;28;20477;-60
2021/05/29 14:14:07;;;;;;;0.90;0.90;;;24.10;50.30;;;;;;5014922;28;20537;-60
2021/05/29 14:16:34;;;;;;;1.87;1.10;;;23.70;51.80;;;;;;5014504;28;20452;-60
2021/05/29 14:19:01;;;;;;;3.43;1.20;;;23.50;52.10;;;;;;5015009;28;20460;-60
2021/05/29 14:21:29;;;;;;;1.67;1.00;;;23.30;53.50;;;;;;5014422;28;20833;-61
2021/05/29 14:23:55;;;;;;;2.00;1.20;;;23.00;52.30;;;;;;5014921;28;20480;-60
2021/05/29 14:26:24;;;;;;;1.07;1.07;;;22.80;54.40;;;;;;5015021;28;20453;-61
2021/05/29 14:28:51;;;;;;;0.93;0.93;;;22.80;53.00;;;;;;5015050;28;20453;-63
2021/05/29 14:31:17;;;;;;;1.40;1.13;;;23.00;53.70;;;;;;5014775;28;20495;-62
2021/05/29 14:33:44;;;;;;;1.00;1.00;;;23.30;53.60;;;;;;5015674;28;20441;-62
2021/05/29 14:36:11;;;;;;;1.13;0.97;;;23.60;52.70;;;;;;5014405;28;20456;-63
2021/05/29 14:38:37;;;;;;;1.10;1.10;;;23.40;51.90;;;;;;5015199;28;20460;-62
2021/05/29 14:41:05;;;;;;;1.90;1.00;;;23.20;54.50;;;;;;5014488;28;20841;-60
2021/05/29 14:43:32;;;;;;;0.70;0.70;;;23.40;52.90;;;;;;5015131;28;20464;-62
2021/05/29 14:45:59;;;;;;;0.90;0.90;;;23.50;52.40;;;;;;5020514;28;20484;-61
2021/05/29 14:48:25;;;;;;;1.47;1.40;;;23.40;54.60;;;;;;5020247;28;20453;-61
2021/05/29 14:53:32;;;;;;;1.00;1.00;;;23.10;52.90;;;;;;5013777;28;20441;-61
2021/05/29 14:55:59;;;;;;;1.20;1.10;;;22.80;55.10;;;;;;5014419;28;20845;-62
2021/05/29 14:58:25;;;;;;;4.70;1.00;;;22.80;55.40;;;;;;5014792;28;21010;-61
2021/05/29 15:03:19;;;;;;;1.30;1.20;;;22.40;55.10;;;;;;5152524;27;20322;-62
2021/05/29 15:05:45;;;;;;;1.43;1.30;;;22.30;57.10;;;;;;5133542;28;20846;-63
2021/05/29 15:08:11;;;;;;;1.37;1.27;;;22.40;57.00;;;;;;5132916;28;20448;-64
2021/05/29 15:10:38;;;;;;;1.10;1.10;;;22.60;54.10;;;;;;5129809;28;20461;-63
2021/05/29 15:13:04;;;;;;;1.17;0.90;;;22.50;55.30;;;;;;5112067;28;20722;-64
2021/05/29 15:15:30;;;;;;;1.17;1.17;;;22.40;56.50;;;;;;5112382;28;20458;-64
2021/05/29 15:17:57;;;;;;;2.33;1.37;;;22.40;55.10;;;;;;5112417;28;20808;-63
2021/05/29 15:20:27;;;;;;;0.80;0.80;;;22.30;55.10;;;;;;5112216;28;20488;-63
2021/05/29 15:22:54;;;;;;;1.23;0.90;;;22.40;55.10;;;;;;5112475;28;20456;-63
2021/05/29 15:25:25;;;;;;;0.80;0.80;;;22.50;53.30;;;;;;5112370;28;20480;-63
2021/05/29 15:27:51;;;;;;;1.20;1.10;;;22.80;54.00;;;;;;5112195;28;20432;-63
2021/05/29 15:30:20;;;;;;;3.80;1.30;;;23.10;53.40;;;;;;5112187;28;20813;-63
2021/05/29 15:32:46;;;;;;;2.17;1.00;;;23.10;56.30;;;;;;5112146;28;20488;-60
2021/05/29 15:35:12;;;;;;;1.53;1.43;;;23.40;53.80;;;;;;5111950;28;20817;-60
2021/05/29 15:37:39;;;;;;;1.20;1.17;;;23.50;54.70;;;;;;5111292;28;20453;-59
2021/05/29 15:40:07;;;;;;;1.40;1.30;;;23.50;54.30;;;;;;5112124;28;20455;-61
2021/05/29 15:42:33;;;;;;;3.60;1.10;;;23.70;54.40;;;;;;5111765;28;20476;-62
2021/05/29 15:44:59;;;;;;;1.13;1.13;;;23.50;55.40;;;;;;5111915;28;20452;-62
2021/05/29 15:47:25;;;;;;;2.50;1.50;;;23.30;55.10;;;;;;5111327;28;20456;-62
2021/05/29 15:49:53;;;;;;;3.37;3.07;;;23.10;55.70;;;;;;5112681;28;20501;-63
2021/05/29 15:52:19;;;;;;;6.57;5.93;;;22.70;56.80;;;;;;5112979;28;20465;-60
2021/05/29 15:54:46;;;;;;;1.80;1.70;;;22.20;56.90;;;;;;5113950;28;20521;-60
2021/05/29 15:57:13;;;;;;;4.10;2.03;;;22.10;56.50;;;;;;5112259;28;20451;-61
2021/05/29 15:59:39;;;;;;;3.70;1.37;;;21.70;56.10;;;;;;5111338;28;20453;-60
2021/05/29 16:02:06;;;;;;;5.30;3.60;;;21.40;57.00;;;;;;5111898;28;20476;-61
2021/05/29 16:04:34;;;;;;;7.67;7.07;;;21.40;57.30;;;;;;5111944;28;20993;-61
2021/05/29 16:07:01;;;;;;;1.80;1.70;;;21.30;58.70;;;;;;5111323;28;20457;-61
2021/05/29 16:09:27;;;;;;;3.67;1.90;;;21.10;56.30;;;;;;5111015;28;20931;-61
2021/05/29 16:11:54;;;;;;;2.07;1.97;;;21.00;56.40;;;;;;5111310;28;20471;-61
2021/05/29 16:14:20;;;;;;;3.17;2.80;;;21.00;58.40;;;;;;5098786;28;20453;-61
2021/05/29 16:16:46;;;;;;;4.60;2.10;;;20.90;57.00;;;;;;5097949;28;20460;-61
2021/05/29 16:19:13;;;;;;;3.17;1.87;;;20.80;57.90;;;;;;5105505;28;20445;-62
2021/05/29 16:21:40;;;;;;;2.33;2.13;;;20.70;57.50;;;;;;5097286;28;20477;-62
2021/05/29 16:24:08;;;;;;;2.03;1.90;;;20.60;58.80;;;;;;5097426;28;20450;-62
2021/05/29 16:26:34;;;;;;;2.80;2.60;;;20.80;59.10;;;;;;5097768;28;20456;-62
2021/05/29 16:29:01;;;;;;;1.33;1.30;;;21.00;60.60;;;;;;5097771;28;20456;-62
2021/05/29 16:31:27;;;;;;;3.10;2.90;;;21.30;57.40;;;;;;5097038;28;20487;-62
2021/05/29 16:33:55;;;;;;;1.90;1.80;;;21.60;58.70;;;;;;5097055;28;20460;-62
2021/05/29 16:36:26;;;;;;;1.43;1.30;;;21.80;57.00;;;;;;5097128;28;20544;-62
2021/05/29 16:38:52;;;;;;;1.77;1.77;;;21.70;57.00;;;;;;5096850;28;20496;-62
2021/05/29 16:41:19;;;;;;;2.23;1.67;;;21.90;57.60;;;;;;5096408;28;20539;-62
2021/05/29 16:43:46;;;;;;;4.07;1.53;;;21.90;57.40;;;;;;5096313;28;20456;-62
2021/05/29 16:46:15;;;;;;;1.20;1.20;;;21.90;58.60;;;;;;5096185;28;20449;-62
2021/05/29 16:48:43;;;;;;;1.07;1.07;;;21.90;55.40;;;;;;5096521;28;20455;-62
2021/05/29 16:51:10;;;;;;;2.37;2.17;;;21.80;56.10;;;;;;5096192;28;20554;-63
2021/05/29 16:53:37;;;;;;;1.60;1.60;;;21.60;57.10;;;;;;5097079;28;20444;-62
2021/05/29 16:56:06;;;;;;;3.40;1.90;;;21.40;57.40;;;;;;5096402;28;20449;-62
2021/05/29 16:58:33;;;;;;;1.53;1.43;;;21.30;57.20;;;;;;5096601;28;20475;-62
2021/05/29 17:01:00;;;;;;;1.03;1.03;;;21.00;56.40;;;;;;5096076;28;20480;-62
2021/05/29 17:03:28;;;;;;;1.87;1.30;;;20.90;58.60;;;;;;5096566;28;20495;-61
2021/05/29 17:05:56;;;;;;;2.83;1.50;;;20.70;57.50;;;;;;5096291;28;20453;-62
2021/05/29 17:08:22;;;;;;;1.30;1.30;;;20.50;58.00;;;;;;5096255;28;20456;-63
2021/05/29 17:10:50;;;;;;;1.50;1.40;;;20.40;57.70;;;;;;5096086;28;20476;-63
2021/05/29 17:13:16;;;;;;;2.20;1.23;;;20.20;58.40;;;;;;5096403;28;20449;-63
2021/05/29 17:15:43;;;;;;;1.60;1.60;;;20.10;58.00;;;;;;5095547;28;20916;-63